Time;durP1;ratioP1;P1;durP2;ratioP2;P2;SDS_P1;SDS_P2;PMS_P1;PMS_P2;Temp;Humidity;BMP_temperature;BMP_pressure;BME280_temperature;BME280_humidity;BME280_pressure;Samples;Min_cycle;Max_cycle;Signal;HPM_P1;HPM_P2
2021/05/06 00:32:09;;;;;;;3.20;0.50;;;;;;;5.41;63.66;99478.10;125001;1108;22939;-54
2021/05/06 00:34:39;;;;;;;4.15;0.60;;;;;;;5.38;63.75;99477.02;125109;1108;24445;-56
2021/05/06 00:37:08;;;;;;;4.93;0.60;;;;;;;5.37;63.55;99480.26;125019;1102;27257;-58
2021/05/06 00:39:41;;;;;;;2.90;0.47;;;;;;;5.34;63.71;99495.03;125113;1108;23800;-55
2021/05/06 01:01:53;;;;;;;4.45;0.70;;;;;;;5.15;64.12;99493.48;125005;1108;22744;-57
2021/05/06 01:04:35;;;;;;;4.40;0.50;;;;;;;5.13;64.16;99484.88;125018;1102;27244;-56
2021/05/06 01:10:05;;;;;;;3.13;0.53;;;;;;;5.08;64.00;99489.02;124924;1102;28385;-57
2021/05/06 01:12:35;;;;;;;;;;;;;;;5.06;64.21;99493.47;125055;1108;22769;-56
2021/05/06 01:15:08;;;;;;;7.05;0.70;;;;;;;5.03;64.15;99489.62;125110;1108;21475;-56
2021/05/06 01:17:51;;;;;;;3.90;0.53;;;;;;;5.02;64.33;99499.16;125026;1101;26034;-56
2021/05/06 01:20:20;;;;;;;;;;;;;;;5.02;64.41;99490.08;125104;1102;26953;-57
2021/05/06 01:22:49;;;;;;;4.27;0.50;;;;;;;5.02;64.15;99498.38;125244;1107;25282;-56
2021/05/06 01:25:19;;;;;;;2.65;0.60;;;;;;;4.98;64.15;99504.07;125007;1102;27173;-58
2021/05/06 01:27:57;;;;;;;5.58;0.70;;;;;;;4.94;64.43;99503.45;125456;1107;22928;-56
2021/05/06 01:30:34;;;;;;;3.53;0.63;;;;;;;4.93;64.42;99504.66;125066;1099;25906;-57
2021/05/06 01:33:11;;;;;;;7.30;0.90;;;;;;;4.89;64.59;99504.05;125484;1105;24436;-55
2021/05/06 01:35:47;;;;;;;4.20;0.60;;;;;;;4.85;64.66;99508.95;125442;1105;25389;-59
2021/05/06 01:38:34;;;;;;;7.47;1.00;;;;;;;4.81;64.67;99506.34;125634;1096;26581;-54
2021/05/06 01:43:59;;;;;;;5.10;1.00;;;;;;;4.76;65.02;99503.39;125803;1101;22822;-56
2021/05/06 01:58:00;;;;;;;9.00;1.10;;;;;;;4.58;65.25;99504.13;125023;1108;22939;-55
2021/05/06 02:00:33;;;;;;;6.85;1.20;;;;;;;4.52;65.28;99522.53;125021;1107;22782;-53
2021/05/06 02:03:03;;;;;;;4.33;0.90;;;;;;;4.49;65.47;99514.39;124955;1102;27305;-55
2021/05/06 02:05:32;;;;;;;7.05;0.80;;;;;;;4.47;65.48;99519.61;124942;1108;24617;-57
2021/05/06 02:08:02;;;;;;;7.40;0.83;;;;;;;4.43;65.52;99514.20;125006;1107;22893;-56
2021/05/06 02:10:32;;;;;;;10.85;1.05;;;;;;;4.40;65.55;99522.64;125199;1101;25995;-56
2021/05/06 02:13:02;;;;;;;8.03;1.20;;;;;;;4.37;65.81;99526.30;124983;1108;22782;-56
2021/05/06 02:15:35;;;;;;;5.63;0.80;;;;;;;4.32;65.75;99526.91;125000;1108;25329;-55
2021/05/06 02:18:05;;;;;;;8.10;1.20;;;;;;;4.26;65.84;99532.27;125143;1108;22773;-54
2021/05/06 02:20:34;;;;;;;8.15;1.30;;;;;;;4.22;65.99;99528.84;125069;1108;22854;-56
2021/05/06 02:23:05;;;;;;;3.90;0.90;;;;;;;4.21;65.99;99523.77;125042;1108;22768;-60
2021/05/06 02:25:33;;;;;;;;;;;;;;;4.17;66.02;99534.97;125085;1102;27369;-57
2021/05/06 02:28:05;;;;;;;5.30;0.90;;;;;;;4.12;66.23;99524.49;125386;1104;21532;-55
2021/05/06 02:30:35;;;;;;;5.88;0.98;;;;;;;4.10;66.40;99536.00;125780;1101;22819;-54
2021/05/06 02:33:07;;;;;;;3.93;0.90;;;;;;;4.08;66.16;99534.91;125867;1101;24567;-58
2021/05/06 02:35:38;;;;;;;5.90;0.90;;;;;;;4.07;66.14;99547.19;125831;1101;24563;-57
2021/05/06 02:38:08;;;;;;;7.73;1.07;;;;;;;4.08;66.34;99543.19;125889;1102;23192;-57
2021/05/06 02:40:38;;;;;;;5.90;1.10;;;;;;;4.05;66.63;99541.34;125894;1101;22741;-56
2021/05/06 02:43:07;;;;;;;8.90;1.00;;;;;;;4.04;66.45;99551.63;125749;1096;22754;-56
2021/05/06 02:45:37;;;;;;;10.40;1.30;;;;;;;3.99;66.52;99545.92;125799;1096;22812;-57
2021/05/06 02:48:08;;;;;;;5.77;1.00;;;;;;;3.96;66.54;99552.33;125770;1096;26279;-56
2021/05/06 02:50:41;;;;;;;7.57;1.20;;;;;;;3.94;67.00;99560.30;125850;1101;22740;-57
2021/05/06 02:53:13;;;;;;;7.40;1.23;;;;;;;3.91;66.95;99563.97;125912;1097;26286;-56
2021/05/06 02:55:52;;;;;;;7.97;1.13;;;;;;;3.89;66.95;99569.17;125975;1101;22771;-57
2021/05/06 02:58:36;;;;;;;5.27;1.00;;;;;;;3.88;67.31;99564.86;125818;1101;22813;-57
2021/05/06 03:04:00;;;;;;;5.50;1.20;;;;;;;3.91;67.21;99561.21;125803;1101;22758;-58
2021/05/06 03:06:32;;;;;;;6.67;1.00;;;;;;;3.89;67.48;99561.64;125648;1101;22748;-57
2021/05/06 03:09:08;;;;;;;4.77;1.10;;;;;;;3.87;67.39;99561.32;125731;1096;26537;-57
2021/05/06 03:11:41;;;;;;;6.23;0.90;;;;;;;3.86;67.58;99562.55;125785;1101;22755;-57
2021/05/06 03:22:44;;;;;;;7.03;1.17;;;;;;;3.75;68.13;99581.48;125850;1096;22911;-58
2021/05/06 03:25:17;;;;;;;7.33;1.33;;;;;;;3.75;68.18;99578.73;125732;1101;22766;-57
2021/05/06 03:27:50;;;;;;;8.40;1.30;;;;;;;3.76;68.44;99571.22;125713;1096;23234;-57
2021/05/06 03:30:40;;;;;;;6.87;1.50;;;;;;;3.74;68.28;99568.92;125646;1096;27500;-57
2021/05/06 03:41:46;;;;;;;7.30;1.57;;;;;;;3.75;68.62;99589.77;125684;1101;22802;-56
2021/05/06 03:44:32;;;;;;;6.37;1.30;;;;;;;3.76;68.72;99593.30;125876;1096;22858;-58
2021/05/06 04:15:52;;;;;;;5.63;1.33;;;;;;;3.89;69.61;99630.67;124960;1107;22752;-58
2021/05/06 04:18:23;;;;;;;9.40;1.55;;;;;;;3.94;69.44;99626.57;124845;1103;25954;-57
2021/05/06 04:26:36;;;;;;;5.83;1.30;;;;;;;4.16;69.71;99627.33;125031;1102;27257;-59
2021/05/06 04:37:29;;;;;;;8.50;1.30;;;;;;;4.55;69.87;99636.95;124709;1103;22766;-59
2021/05/06 04:40:02;;;;;;;5.50;1.43;;;;;;;4.62;69.84;99645.74;124906;1108;22749;-59
2021/05/06 04:42:51;;;;;;;8.05;1.60;;;;;;;4.70;69.63;99644.24;124705;1103;24471;-58
2021/05/06 05:03:13;;;;;;;4.95;1.30;;;;;;;5.12;69.67;99636.27;125345;1104;24409;-59
2021/05/06 05:05:07;;;;;;;7.08;1.83;;;;;;;5.28;69.14;99641.53;125553;1104;22926;-58
2021/05/06 05:07:38;;;;;;;5.33;1.53;;;;;;;5.37;69.28;99647.11;125932;1102;22753;-58
2021/05/06 05:18:45;;;;;;;7.60;1.50;;;;;;;5.74;69.06;99640.39;124995;1108;22949;-58
2021/05/06 05:21:20;;;;;;;7.73;1.70;;;;;;;5.84;68.82;99638.41;124989;1103;26893;-58
2021/05/06 05:23:51;;;;;;;5.67;1.40;;;;;;;5.93;68.68;99652.28;124848;1108;22851;-58
2021/05/06 05:26:21;;;;;;;6.77;1.50;;;;;;;6.02;68.63;99645.97;125000;1103;27381;-59
2021/05/06 05:28:50;;;;;;;6.00;1.60;;;;;;;6.08;68.48;99650.44;125159;1108;22781;-64
2021/05/06 05:31:20;;;;;;;8.80;1.40;;;;;;;6.17;68.56;99644.09;124997;1108;22830;-59
2021/05/06 05:33:52;;;;;;;6.63;1.80;;;;;;;6.25;68.07;99654.41;125037;1108;22786;-58
2021/05/06 05:36:24;;;;;;;6.07;1.47;;;;;;;6.34;68.29;99656.40;125033;1103;25998;-59
2021/05/06 05:38:59;;;;;;;6.43;1.50;;;;;;;6.42;68.20;99652.84;125025;1108;22763;-58
2021/05/06 05:44:46;;;;;;;11.15;1.50;;;;;;;6.63;67.92;99656.66;124669;1111;22811;-59
2021/05/06 05:55:38;;;;;;;5.90;1.40;;;;;;;7.03;67.45;99661.92;125069;1105;22785;-59
2021/05/06 05:58:07;;;;;;;6.63;1.47;;;;;;;7.10;67.20;99662.34;125425;1104;22832;-60
2021/05/06 06:00:37;;;;;;;9.10;1.93;;;;;;;7.19;67.39;99658.76;125464;1100;22868;-60
2021/05/06 06:03:07;;;;;;;8.67;1.77;;;;;;;7.30;67.14;99659.77;125414;1104;22942;-59
2021/05/06 06:05:36;;;;;;;6.43;1.53;;;;;;;7.40;66.66;99659.73;125498;1100;22834;-59
2021/05/06 06:08:05;;;;;;;4.70;1.70;;;;;;;7.45;66.96;99659.09;125450;1104;22764;-58
2021/05/06 06:10:35;;;;;;;5.10;1.45;;;;;;;7.52;66.88;99655.95;125514;1100;22871;-59
2021/05/06 06:13:05;;;;;;;8.68;1.55;;;;;;;7.58;66.37;99651.28;125395;1100;26592;-59
2021/05/06 06:15:48;;;;;;;9.17;1.50;;;;;;;7.66;66.45;99658.02;125387;1100;26056;-59
2021/05/06 06:18:22;;;;;;;7.93;1.60;;;;;;;7.74;66.31;99648.11;125698;1100;26619;-59
2021/05/06 06:21:00;;;;;;;7.27;1.53;;;;;;;7.83;66.33;99657.14;125414;1104;24579;-59
2021/05/06 06:23:30;;;;;;;5.57;1.60;;;;;;;7.92;66.05;99661.86;125662;1096;27167;-59
2021/05/06 06:25:59;;;;;;;7.57;1.83;;;;;;;7.98;66.40;99652.39;125969;1096;26203;-59
2021/05/06 06:28:36;;;;;;;10.08;1.45;;;;;;;8.08;66.01;99658.64;125867;1101;23082;-58
2021/05/06 06:31:12;;;;;;;6.00;1.60;;;;;;;8.13;65.60;99653.17;125715;1096;26417;-59
2021/05/06 06:33:41;;;;;;;6.10;2.20;;;;;;;8.21;65.57;99661.16;125894;1101;24708;-59
2021/05/06 06:36:11;;;;;;;10.10;1.50;;;;;;;8.27;65.56;99660.05;125834;1101;22830;-59
2021/05/06 06:38:41;;;;;;;6.88;1.30;;;;;;;8.35;65.39;99649.31;125937;1102;22767;-59
2021/05/06 06:41:12;;;;;;;6.70;1.60;;;;;;;8.44;65.36;99655.55;125723;1102;22777;-59
2021/05/06 06:43:45;;;;;;;7.33;1.60;;;;;;;8.57;64.99;99641.35;125690;1101;22771;-59
2021/05/06 06:46:15;;;;;;;6.00;1.50;;;;;;;8.68;65.45;99647.89;125723;1101;22757;-61
2021/05/06 06:48:43;;;;;;;;;;;;;;;8.85;65.52;99640.59;125780;1101;22729;-60
2021/05/06 06:51:13;;;;;;;5.23;1.40;;;;;;;8.98;64.92;99647.87;125682;1096;21461;-59
2021/05/06 06:53:42;;;;;;;5.83;1.43;;;;;;;9.05;64.68;99648.23;125679;1096;22774;-60
2021/05/06 06:56:12;;;;;;;5.50;1.30;;;;;;;9.06;63.87;99649.00;125719;1096;27196;-60
2021/05/06 06:58:41;;;;;;;5.27;1.20;;;;;;;9.07;63.29;99650.52;125710;1096;24463;-60
2021/05/06 07:01:11;;;;;;;5.25;1.15;;;;;;;9.08;63.59;99636.14;125508;1096;26219;-60
2021/05/06 07:03:40;;;;;;;6.40;1.20;;;;;;;9.13;63.32;99640.23;125606;1102;25327;-60
2021/05/06 07:06:11;;;;;;;5.80;1.17;;;;;;;9.16;63.80;99631.70;125546;1104;22919;-60
2021/05/06 07:08:43;;;;;;;6.33;1.27;;;;;;;9.22;63.96;99640.13;125769;1101;22822;-62
2021/05/06 07:11:13;;;;;;;4.87;1.20;;;;;;;9.26;63.81;99632.33;125781;1101;22747;-61
2021/05/06 07:13:43;;;;;;;4.53;1.05;;;;;;;9.25;63.60;99642.70;125841;1096;27196;-62
2021/05/06 07:16:13;;;;;;;4.27;1.20;;;;;;;9.22;63.13;99642.91;125699;1101;24507;-59
2021/05/06 07:18:42;;;;;;;5.78;1.00;;;;;;;9.27;63.03;99633.88;125838;1096;25851;-60
2021/05/06 07:21:12;;;;;;;6.60;0.90;;;;;;;9.29;60.87;99639.73;125665;1101;22755;-59
2021/05/06 07:23:41;;;;;;;5.70;1.23;;;;;;;9.19;61.19;99630.72;125783;1101;22812;-61
2021/05/06 07:26:10;;;;;;;4.93;1.00;;;;;;;9.07;60.72;99642.17;125817;1101;24433;-60
2021/05/06 07:28:42;;;;;;;4.53;0.97;;;;;;;8.96;61.09;99631.63;125808;1096;22738;-60
2021/05/06 07:31:12;;;;;;;5.90;0.95;;;;;;;8.99;60.59;99633.45;125638;1096;27180;-59
2021/05/06 07:33:43;;;;;;;5.57;1.00;;;;;;;9.05;59.89;99630.75;125666;1101;22741;-59
2021/05/06 07:36:13;;;;;;;3.77;1.00;;;;;;;9.15;61.01;99632.16;125680;1101;22768;-59
2021/05/06 07:38:43;;;;;;;3.90;1.07;;;;;;;9.25;61.21;99634.34;125838;1101;22758;-59
2021/05/06 07:41:14;;;;;;;5.25;1.08;;;;;;;9.35;61.21;99627.39;125945;1101;22802;-59
2021/05/06 07:43:43;;;;;;;6.78;1.18;;;;;;;9.45;60.61;99631.61;125696;1096;26379;-60
2021/05/06 07:46:13;;;;;;;4.20;1.10;;;;;;;9.56;60.43;99637.31;125450;1104;22919;-60
2021/05/06 07:48:42;;;;;;;5.07;1.17;;;;;;;9.64;60.31;99621.71;125678;1101;22829;-60
2021/05/06 07:51:12;;;;;;;4.87;1.20;;;;;;;9.77;59.88;99632.52;125454;1096;22919;-60
2021/05/06 07:53:43;;;;;;;4.73;1.30;;;;;;;9.89;59.67;99634.17;125429;1096;28455;-59
2021/05/06 07:56:13;;;;;;;4.65;1.20;;;;;;;9.94;59.13;99621.56;125728;1101;22806;-58
2021/05/06 07:58:42;;;;;;;3.67;1.10;;;;;;;9.98;59.51;99620.09;125879;1101;22889;-60
2021/05/06 08:01:14;;;;;;;6.43;1.37;;;;;;;10.01;58.83;99632.30;125489;1096;25938;-61
2021/05/06 08:03:47;;;;;;;6.03;1.10;;;;;;;9.98;57.26;99628.46;125950;1096;22748;-60
2021/05/06 08:06:18;;;;;;;5.93;1.20;;;;;;;10.00;57.56;99628.73;125705;1101;24571;-60
2021/05/06 08:08:46;;;;;;;;;;;;;;;10.04;57.34;99622.94;125726;1101;24636;-60
2021/05/06 08:11:16;;;;;;;4.57;1.03;;;;;;;10.11;57.79;99626.11;125762;1101;21461;-59
2021/05/06 08:13:46;;;;;;;8.88;1.15;;;;;;;10.18;57.87;99630.50;125934;1096;27167;-60
2021/05/06 08:16:18;;;;;;;4.03;1.10;;;;;;;10.27;56.93;99625.52;125723;1101;22783;-60
2021/05/06 08:18:47;;;;;;;2.97;0.80;;;;;;;10.30;54.62;99627.34;126100;1096;25992;-58
2021/05/06 08:21:16;;;;;;;7.35;1.30;;;;;;;10.33;56.04;99615.17;125661;1096;26213;-60
2021/05/06 08:23:47;;;;;;;6.33;1.40;;;;;;;10.44;56.31;99609.71;125675;1101;22824;-59
2021/05/06 08:26:16;;;;;;;6.63;1.20;;;;;;;10.62;55.22;99630.14;125698;1101;22753;-60
2021/05/06 08:28:46;;;;;;;5.90;0.90;;;;;;;10.72;54.99;99611.98;125672;1101;22832;-59
2021/05/06 08:31:15;;;;;;;4.93;1.10;;;;;;;10.69;54.00;99622.11;126352;1101;22768;-60
2021/05/06 08:33:45;;;;;;;6.00;1.17;;;;;;;10.63;52.64;99618.51;125709;1102;23802;-59
2021/05/06 08:36:14;;;;;;;7.00;1.10;;;;;;;10.68;53.52;99623.36;125811;1102;22803;-59
2021/05/06 08:38:44;;;;;;;2.75;1.00;;;;;;;10.73;53.85;99619.86;125714;1101;22741;-60
2021/05/06 08:41:14;;;;;;;3.83;1.00;;;;;;;10.84;53.79;99630.36;125906;1101;22847;-59
2021/05/06 08:43:49;;;;;;;4.35;1.00;;;;;;;10.85;52.93;99629.85;125765;1096;22970;-60
2021/05/06 08:46:19;;;;;;;5.00;1.00;;;;;;;10.84;53.12;99635.94;125593;1101;22771;-59
2021/05/06 08:48:49;;;;;;;5.47;1.03;;;;;;;10.81;50.75;99631.33;125734;1102;22758;-59
2021/05/06 08:51:18;;;;;;;3.10;0.80;;;;;;;10.73;51.02;99630.25;125623;1102;22841;-58
2021/05/06 08:53:48;;;;;;;3.70;0.80;;;;;;;10.69;51.96;99624.91;125733;1101;22734;-60
2021/05/06 08:56:18;;;;;;;3.23;0.93;;;;;;;10.67;51.63;99624.63;125619;1101;22741;-61
2021/05/06 08:58:47;;;;;;;;;;;;;;;10.62;50.25;99627.36;125581;1104;22840;-61
2021/05/06 09:01:17;;;;;;;3.63;0.80;;;;;;;10.51;51.31;99620.41;125696;1101;21519;-59
2021/05/06 09:03:47;;;;;;;5.27;1.40;;;;;;;10.49;51.17;99630.56;126029;1096;22940;-60
2021/05/06 09:06:21;;;;;;;5.85;0.90;;;;;;;10.50;51.45;99624.48;125759;1102;24393;-57
2021/05/06 09:08:53;;;;;;;4.57;1.07;;;;;;;10.59;51.18;99626.34;125781;1101;24484;-60
2021/05/06 09:11:32;;;;;;;3.20;0.87;;;;;;;10.65;50.34;99621.57;125787;1101;22907;-60
2021/05/06 09:14:06;;;;;;;6.50;0.97;;;;;;;10.68;50.55;99622.61;125849;1101;23284;-59
2021/05/06 09:16:37;;;;;;;5.53;0.80;;;;;;;10.82;51.22;99621.71;125773;1101;22869;-59
2021/05/06 09:19:08;;;;;;;5.35;1.00;;;;;;;11.08;51.04;99622.41;125700;1096;22768;-60
2021/05/06 09:21:39;;;;;;;5.13;1.03;;;;;;;11.25;49.65;99621.27;125739;1101;22768;-60
2021/05/06 09:24:13;;;;;;;5.00;1.03;;;;;;;11.42;49.67;99612.20;125761;1101;22816;-61
2021/05/06 09:26:43;;;;;;;4.07;0.90;;;;;;;11.57;48.57;99624.73;125733;1101;24422;-59
2021/05/06 09:29:28;;;;;;;6.13;0.80;;;;;;;11.71;48.20;99620.27;125614;1104;22737;-59
2021/05/06 09:32:10;;;;;;;5.73;0.90;;;;;;;11.90;48.39;99612.95;125595;1096;23629;-60
2021/05/06 09:34:40;;;;;;;11.93;1.00;;;;;;;12.02;47.66;99615.28;125678;1101;22744;-60
2021/05/06 09:37:08;;;;;;;;;;;;;;;12.03;47.23;99608.43;125737;1101;22822;-61
2021/05/06 09:39:40;;;;;;;3.10;0.60;;;;;;;12.03;46.71;99605.63;125742;1097;24732;-59
2021/05/06 09:42:12;;;;;;;2.30;0.70;;;;;;;12.07;46.88;99603.36;125602;1102;22819;-59
2021/05/06 09:44:55;;;;;;;2.60;0.50;;;;;;;12.14;46.38;99608.47;125565;1102;22754;-59
2021/05/06 09:47:25;;;;;;;3.70;0.77;;;;;;;12.19;45.73;99602.11;125782;1101;22740;-62
2021/05/06 09:49:54;;;;;;;5.53;0.90;;;;;;;12.26;46.48;99600.08;125644;1096;27628;-60
2021/05/06 09:52:23;;;;;;;2.50;0.70;;;;;;;12.31;45.05;99605.68;125631;1102;22903;-63
2021/05/06 09:54:54;;;;;;;4.83;0.70;;;;;;;12.24;44.95;99599.83;125603;1101;22907;-59
2021/05/06 09:57:30;;;;;;;7.23;0.60;;;;;;;12.13;45.22;99601.33;125817;1101;25606;-60
2021/05/06 10:00:18;;;;;;;3.03;0.67;;;;;;;12.19;46.02;99595.73;125974;1101;22765;-60
2021/05/06 10:02:47;;;;;;;6.87;0.80;;;;;;;12.27;45.47;99604.42;125663;1104;22819;-59
2021/05/06 10:05:17;;;;;;;5.20;0.70;;;;;;;12.25;44.07;99609.77;125473;1104;22758;-60
2021/05/06 10:07:53;;;;;;;5.13;1.10;;;;;;;12.22;44.71;99597.54;125840;1101;22731;-62
2021/05/06 10:10:25;;;;;;;4.00;0.90;;;;;;;12.27;44.82;99601.63;125870;1101;22753;-59
2021/05/06 10:12:55;;;;;;;4.07;0.70;;;;;;;12.30;44.29;99600.59;125865;1101;22768;-59
2021/05/06 10:15:25;;;;;;;5.50;0.77;;;;;;;12.31;44.00;99600.08;125818;1101;22740;-60
2021/05/06 10:17:55;;;;;;;6.88;0.80;;;;;;;12.24;44.09;99600.59;125812;1101;23007;-60
2021/05/06 10:20:25;;;;;;;;;;;;;;;12.12;44.75;99604.64;125791;1101;22694;-59
2021/05/06 10:22:56;;;;;;;3.73;0.75;;;;;;;11.96;44.87;99589.33;125797;1101;21464;-58
2021/05/06 10:25:27;;;;;;;5.00;1.10;;;;;;;11.88;44.91;99587.52;125745;1101;22800;-59
2021/05/06 10:27:56;;;;;;;3.57;0.70;;;;;;;11.81;44.92;99591.59;125898;1101;22854;-60
2021/05/06 10:30:27;;;;;;;3.55;0.68;;;;;;;11.72;45.22;99583.41;125782;1101;22891;-59
2021/05/06 10:32:58;;;;;;;4.70;0.90;;;;;;;11.70;44.74;99580.34;125914;1101;22765;-61
2021/05/06 10:35:28;;;;;;;6.60;1.00;;;;;;;11.66;45.09;99570.64;125674;1096;27590;-61
2021/05/06 10:37:58;;;;;;;;;;;;;;;11.64;45.16;99570.38;125863;1101;22813;-61
2021/05/06 10:40:30;;;;;;;2.77;0.63;;;;;;;11.63;45.18;99564.02;125994;1101;21779;-61
2021/05/06 10:43:20;;;;;;;2.83;0.63;;;;;;;11.64;44.84;99567.58;125792;1096;27613;-60
2021/05/06 10:45:59;;;;;;;6.97;1.07;;;;;;;11.64;45.43;99561.98;125908;1101;22800;-60
2021/05/06 10:49:02;;;;;;;2.77;0.77;;;;;;;11.66;45.17;99568.64;125820;1101;22803;-61
2021/05/06 10:51:44;;;;;;;5.00;0.80;;;;;;;11.67;44.36;99558.23;125621;1104;22897;-62
2021/05/06 10:54:34;;;;;;;5.20;0.83;;;;;;;11.74;45.85;99557.73;125753;1096;22903;-59
2021/05/06 10:57:33;;;;;;;6.70;0.80;;;;;;;11.83;44.99;99563.88;125768;1101;22932;-57
2021/05/06 11:00:22;;;;;;;4.83;0.80;;;;;;;11.94;44.46;99552.70;125679;1101;22967;-58
2021/05/06 11:02:54;;;;;;;2.83;0.70;;;;;;;12.08;43.97;99550.97;125795;1101;22846;-58
2021/05/06 11:05:27;;;;;;;3.73;0.70;;;;;;;12.14;43.74;99566.50;125897;1101;22862;-58
2021/05/06 11:08:28;;;;;;;4.00;0.70;;;;;;;12.12;43.73;99555.02;125576;1096;27310;-57
2021/05/06 11:11:17;;;;;;;3.40;0.70;;;;;;;12.16;44.52;99558.36;125607;1104;22747;-60
2021/05/06 11:14:10;;;;;;;4.40;0.60;;;;;;;12.24;44.76;99549.45;125524;1096;27792;-58
2021/05/06 11:16:42;;;;;;;2.93;0.73;;;;;;;12.27;44.36;99545.66;125947;1101;22857;-58
2021/05/06 11:19:12;;;;;;;2.33;0.80;;;;;;;12.23;43.67;99556.34;125902;1102;22757;-58
2021/05/06 11:21:45;;;;;;;4.45;0.60;;;;;;;12.19;44.10;99548.94;126081;1096;22806;-59
2021/05/06 11:24:19;;;;;;;3.27;0.70;;;;;;;12.19;44.63;99553.77;126404;1101;25677;-58
2021/05/06 11:27:13;;;;;;;4.00;1.00;;;;;;;12.14;43.14;99568.53;126075;1102;22744;-59
2021/05/06 11:29:44;;;;;;;4.60;0.60;;;;;;;12.02;43.60;99562.13;126077;1101;22694;-59
2021/05/06 11:32:35;;;;;;;3.53;0.60;;;;;;;11.92;42.96;99566.43;125952;1104;22772;-57
2021/05/06 11:35:05;;;;;;;3.93;0.90;;;;;;;11.77;43.60;99582.64;129846;1101;22583;-60
2021/05/06 11:37:36;;;;;;;3.05;0.58;;;;;;;11.60;44.00;99586.63;126330;1097;22742;-58
2021/05/06 11:40:11;;;;;;;6.27;0.80;;;;;;;11.31;46.42;99591.33;126167;1096;22760;-61
2021/05/06 11:42:44;;;;;;;6.07;0.87;;;;;;;11.04;47.74;99585.56;126551;1101;22851;-58
2021/05/06 11:45:23;;;;;;;5.70;0.97;;;;;;;10.91;48.14;99582.41;126746;1101;22768;-59
2021/05/06 11:47:57;;;;;;;5.67;0.80;;;;;;;10.88;49.62;99586.22;126215;1104;22874;-59
2021/05/06 11:50:29;;;;;;;9.77;1.00;;;;;;;10.94;49.52;99579.41;126326;1104;22725;-58
2021/05/06 11:53:03;;;;;;;3.20;0.70;;;;;;;11.07;49.45;99576.20;126412;1101;22844;-60
2021/05/06 11:55:39;;;;;;;3.50;0.80;;;;;;;11.23;50.15;99576.30;126654;1101;22751;-59
2021/05/06 11:58:10;;;;;;;3.70;0.80;;;;;;;11.35;50.33;99572.29;126410;1096;22742;-60
2021/05/06 12:00:41;;;;;;;5.97;0.70;;;;;;;11.49;49.93;99575.38;127008;1096;22774;-60
2021/05/06 12:03:11;;;;;;;2.97;0.70;;;;;;;11.57;49.19;99568.05;126333;1096;27680;-59
2021/05/06 12:06:01;;;;;;;2.83;0.83;;;;;;;11.66;49.65;99554.66;127005;1101;25084;-59
2021/05/06 12:08:34;;;;;;;7.60;1.00;;;;;;;11.77;49.75;99557.48;127808;1101;22719;-58
2021/05/06 12:11:05;;;;;;;3.07;0.80;;;;;;;11.85;49.31;99552.18;127093;1096;22916;-59
2021/05/06 12:13:36;;;;;;;3.83;0.80;;;;;;;11.91;49.66;99542.54;126193;1104;22826;-60
2021/05/06 12:16:15;;;;;;;4.80;1.00;;;;;;;12.08;49.81;99545.38;126134;1096;22822;-60
2021/05/06 12:18:55;;;;;;;4.33;0.80;;;;;;;12.17;48.51;99548.69;125825;1104;22809;-58
2021/05/06 12:21:42;;;;;;;;;;;;;;;12.12;48.90;99543.83;126162;1101;23502;-59
2021/05/06 12:24:13;;;;;;;2.90;0.60;;;;;;;12.19;48.37;99536.97;126002;1101;21551;-59
2021/05/06 12:26:43;;;;;;;1.57;0.50;;;;;;;12.32;48.16;99523.26;126642;1101;25521;-60
2021/05/06 12:29:23;;;;;;;3.30;0.57;;;;;;;12.43;47.25;99520.47;127451;1101;24264;-58
2021/05/06 12:31:54;;;;;;;3.43;0.50;;;;;;;12.45;46.40;99517.16;126522;1101;22761;-59
2021/05/06 12:34:26;;;;;;;1.77;0.50;;;;;;;12.43;47.01;99514.10;126719;1101;25221;-59
2021/05/06 12:36:58;;;;;;;3.47;0.60;;;;;;;12.45;48.06;99511.55;126454;1101;22986;-58
2021/05/06 12:39:30;;;;;;;2.73;0.50;;;;;;;12.55;47.56;99521.98;126659;1101;23181;-59
2021/05/06 12:42:04;;;;;;;2.77;0.43;;;;;;;12.56;46.08;99511.56;126509;1096;22741;-62
2021/05/06 12:44:43;;;;;;;2.27;0.60;;;;;;;12.52;46.67;99506.20;126360;1096;25864;-58
2021/05/06 12:47:17;;;;;;;4.70;0.80;;;;;;;12.54;46.94;99505.71;126742;1101;22800;-58
2021/05/06 12:49:48;;;;;;;3.80;0.67;;;;;;;12.63;46.92;99494.23;126550;1101;22740;-59
2021/05/06 12:52:39;;;;;;;3.27;0.80;;;;;;;12.68;47.07;99504.67;126579;1101;22829;-59
2021/05/06 12:55:21;;;;;;;3.70;0.70;;;;;;;12.71;46.57;99498.80;126402;1096;26263;-59
2021/05/06 13:01:11;;;;;;;3.15;0.65;;;;;;;12.84;47.69;99498.27;126863;1090;23132;-58
2021/05/06 13:03:43;;;;;;;4.93;0.50;;;;;;;12.97;46.99;99495.70;126695;1096;26357;-58
2021/05/06 13:06:15;;;;;;;2.60;0.60;;;;;;;12.96;46.05;99499.77;126826;1101;22755;-59
2021/05/06 13:08:47;;;;;;;2.20;0.50;;;;;;;12.90;46.95;99491.39;126686;1101;22714;-58
2021/05/06 13:11:22;;;;;;;3.60;0.80;;;;;;;12.83;46.67;99493.93;126755;1101;22901;-59
2021/05/06 13:13:53;;;;;;;3.40;0.70;;;;;;;12.70;46.27;99476.92;126690;1101;22838;-59
2021/05/06 13:16:42;;;;;;;4.00;0.50;;;;;;;12.59;46.68;99479.72;126884;1093;22754;-59
2021/05/06 13:19:14;;;;;;;2.90;0.60;;;;;;;12.48;47.67;99488.13;126747;1101;23217;-58
2021/05/06 13:21:52;;;;;;;1.70;0.67;;;;;;;12.45;48.33;99461.17;126782;1093;22801;-59
2021/05/06 13:24:22;;;;;;;3.40;0.60;;;;;;;12.55;48.49;99471.59;126735;1101;22903;-59
2021/05/06 13:26:51;;;;;;;2.90;0.43;;;;;;;12.65;47.58;99461.64;126711;1093;22800;-59
2021/05/06 13:29:21;;;;;;;2.75;0.70;;;;;;;12.70;46.80;99472.09;126604;1093;26062;-58
2021/05/06 13:31:51;;;;;;;4.05;0.70;;;;;;;12.67;46.66;99473.09;126640;1101;24242;-58
2021/05/06 13:34:24;;;;;;;5.03;0.50;;;;;;;12.66;46.50;99476.42;126747;1101;22871;-59
2021/05/06 13:37:03;;;;;;;2.87;0.70;;;;;;;12.65;46.33;99474.88;126713;1101;22781;-59
2021/05/06 13:39:33;;;;;;;2.67;0.40;;;;;;;12.62;46.84;99464.72;126613;1101;22759;-57
2021/05/06 13:42:03;;;;;;;3.37;0.70;;;;;;;12.62;47.13;99470.31;126772;1093;22730;-59
2021/05/06 13:44:34;;;;;;;2.50;0.50;;;;;;;12.64;47.46;99462.16;126737;1101;22831;-59
2021/05/06 13:47:09;;;;;;;6.53;0.70;;;;;;;12.70;47.86;99462.91;126692;1101;22822;-59
2021/05/06 13:49:40;;;;;;;3.60;0.55;;;;;;;12.75;47.51;99460.09;126752;1101;22876;-59
2021/05/06 13:52:08;;;;;;;;;;;;;;;12.77;46.84;99456.77;128262;1101;22894;-60
2021/05/06 13:54:38;;;;;;;2.55;0.40;;;;;;;12.75;46.60;99448.12;126516;1101;21602;-60
2021/05/06 13:57:08;;;;;;;3.47;0.60;;;;;;;12.73;46.86;99442.27;126515;1101;22880;-60
2021/05/06 13:59:38;;;;;;;5.35;0.50;;;;;;;12.72;46.89;99449.16;126686;1101;22853;-60
2021/05/06 14:02:10;;;;;;;5.20;0.50;;;;;;;12.68;45.82;99446.60;126485;1101;22877;-60
2021/05/06 14:04:40;;;;;;;3.33;0.60;;;;;;;12.62;45.49;99436.72;126701;1101;22706;-59
2021/05/06 14:07:11;;;;;;;3.75;0.50;;;;;;;12.59;45.75;99427.30;126435;1093;25751;-58
2021/05/06 14:09:40;;;;;;;4.03;0.50;;;;;;;12.62;45.42;99434.66;126516;1101;22745;-58
2021/05/06 14:12:10;;;;;;;4.98;0.65;;;;;;;12.65;46.09;99424.47;126443;1101;24384;-59
2021/05/06 14:14:40;;;;;;;3.30;0.67;;;;;;;12.69;46.30;99424.97;126610;1101;22872;-59
2021/05/06 14:17:09;;;;;;;3.90;0.70;;;;;;;12.67;45.43;99430.32;126626;1101;22803;-58
2021/05/06 14:19:39;;;;;;;3.07;0.70;;;;;;;12.59;45.11;99435.69;126546;1101;22722;-59
2021/05/06 14:22:09;;;;;;;4.50;0.68;;;;;;;12.52;45.72;99450.20;126580;1101;22703;-58
2021/05/06 14:24:38;;;;;;;3.80;0.60;;;;;;;12.45;45.62;99438.77;126571;1101;25542;-59
2021/05/06 14:27:08;;;;;;;2.87;0.50;;;;;;;12.45;46.05;99424.78;126658;1101;23653;-58
2021/05/06 14:29:37;;;;;;;2.68;0.40;;;;;;;12.51;45.20;99419.92;126594;1101;22832;-58
2021/05/06 14:32:08;;;;;;;3.13;0.50;;;;;;;12.50;45.51;99416.36;126444;1101;22888;-59
2021/05/06 14:34:36;;;;;;;;;;;;;;;12.53;46.10;99412.55;126599;1101;22691;-59
2021/05/06 14:37:06;;;;;;;3.00;0.60;;;;;;;12.57;45.76;99401.84;126461;1101;21598;-60
2021/05/06 14:39:35;;;;;;;5.10;0.68;;;;;;;12.71;46.03;99406.38;126594;1101;22824;-58
2021/05/06 14:42:06;;;;;;;2.13;0.47;;;;;;;12.88;46.64;99403.53;126735;1101;22851;-59
2021/05/06 14:44:34;;;;;;;;;;;;;;;12.96;45.39;99396.11;126749;1101;22730;-58
2021/05/06 14:47:04;;;;;;;3.70;0.60;;;;;;;12.99;45.31;99403.50;126622;1101;21520;-59
2021/05/06 14:49:33;;;;;;;4.25;0.88;;;;;;;12.96;45.33;99396.88;126695;1101;22772;-58